MBW weather

Melbourne Moorabbin Airport
Melbourne, Victoria, Australia

Public forecast

Using degrees Celsius for public forecast. Weather courtesy of forecast.io.

METAR (pilot weather report)

Closest report is Melbourne Essendon Airport, 17.6 nm (32.7 km) NNW. Retrieved 2017/09/20 20:00 UTC (53 minutes ago):

YMEN 202000Z AUTO 01017KT 9999 // NCD 13/05 Q1012

TAF (pilot weather forecast)

Closest forecast is Melbourne International Airport, 21.9 nm (40.6 km) NW. Retrieved 2017/09/20 18:39 UTC (2 hours ago):

TAF COR YMML 201731Z 2018/2124 36020G32KT CAVOK FM202100 36025G40KT 9999 -SHRA NSC BECMG 2103/2105 33014KT 9999 -SHRA NSC FM210700 29008KT 9999 -SHRA SCT060 FM211100 19010KT 9999 -SHRA FEW010 BKN015 FM211400 VRB05KT 9999 FEW010 BKN020 FM212200 36010KT 9999 FEW020 INTER 2106/2111 5000 SHRA SCT060 INTER 2111/2114 6000 -SHRA BKN010